Time;durP1;ratioP1;P1;durP2;ratioP2;P2;SDS_P1;SDS_P2;PMS_P1;PMS_P2;Temp;Humidity;BMP_temperature;BMP_pressure;BME280_temperature;BME280_humidity;BME280_pressure;Samples;Min_cycle;Max_cycle;Signal;HPM_P1;HPM_P2
2021/10/10 00:00:57;;;;;;;2.97;2.67;;;15.00;99.90;;;;;;5091908;28;20201;-82
2021/10/10 00:03:24;;;;;;;3.38;3.10;;;15.00;99.90;;;;;;5091825;28;20208;-82
2021/10/10 00:05:51;;;;;;;4.00;3.63;;;15.00;99.90;;;;;;5091413;28;20209;-82
2021/10/10 00:08:18;;;;;;;4.35;3.45;;;15.00;99.90;;;;;;5083360;28;20209;-83
2021/10/10 00:10:46;;;;;;;5.93;3.58;;;15.00;99.90;;;;;;5091111;28;20275;-83
2021/10/10 00:13:13;;;;;;;4.07;3.58;;;15.00;99.90;;;;;;5091363;28;20206;-82
2021/10/10 00:15:41;;;;;;;5.10;3.45;;;15.00;99.90;;;;;;5090962;28;20273;-82
2021/10/10 00:18:08;;;;;;;4.97;3.50;;;14.90;99.90;;;;;;5091358;28;20205;-82
2021/10/10 00:20:35;;;;;;;4.07;3.67;;;14.90;99.90;;;;;;5091068;28;20209;-82
2021/10/10 00:23:02;;;;;;;4.93;3.70;;;14.80;99.90;;;;;;5091588;28;20210;-83
2021/10/10 00:25:29;;;;;;;3.65;3.30;;;14.80;99.90;;;;;;5090582;28;20235;-82
2021/10/10 00:27:58;;;;;;;3.55;3.25;;;14.80;99.90;;;;;;5091983;28;20235;-81
2021/10/10 00:30:25;;;;;;;3.95;3.53;;;14.80;99.90;;;;;;5091596;28;20201;-82
2021/10/10 00:32:53;;;;;;;5.50;4.18;;;14.80;99.90;;;;;;5090862;28;20288;-80
2021/10/10 00:35:20;;;;;;;5.13;3.72;;;14.80;99.90;;;;;;5091221;28;20229;-82
2021/10/10 00:37:47;;;;;;;4.82;3.78;;;14.80;99.90;;;;;;5090661;28;20206;-83
2021/10/10 00:40:15;;;;;;;3.58;3.28;;;14.80;99.90;;;;;;5091752;28;20635;-84
2021/10/10 00:42:42;;;;;;;4.97;4.15;;;14.80;99.90;;;;;;5090335;28;20243;-84
2021/10/10 00:45:11;;;;;;;4.57;4.18;;;14.80;99.90;;;;;;5091101;28;20254;-84
2021/10/10 00:47:38;;;;;;;4.65;3.70;;;14.80;99.90;;;;;;5090518;28;20217;-81
2021/10/10 00:50:06;;;;;;;4.32;3.92;;;14.80;99.90;;;;;;5091110;28;20213;-80
2021/10/10 00:52:40;;;;;;;7.93;4.00;;;14.80;99.90;;;;;;5090622;28;20209;-81
2021/10/10 00:55:08;;;;;;;4.00;3.60;;;14.80;99.90;;;;;;5090979;28;20221;-81
2021/10/10 00:57:36;;;;;;;4.30;3.72;;;14.80;99.90;;;;;;5090670;28;20239;-80
2021/10/10 01:00:08;;;;;;;7.90;4.07;;;14.80;99.90;;;;;;5090279;28;20661;-81
2021/10/10 01:02:37;;;;;;;5.57;3.83;;;14.80;99.90;;;;;;5090395;28;20212;-81
2021/10/10 01:05:05;;;;;;;4.00;3.60;;;14.80;99.90;;;;;;5090386;28;20217;-81
2021/10/10 01:07:32;;;;;;;4.15;3.75;;;14.80;99.90;;;;;;5090392;28;20209;-81
2021/10/10 01:09:59;;;;;;;6.38;3.47;;;14.80;99.90;;;;;;5090841;28;20205;-81
2021/10/10 01:12:27;;;;;;;9.32;4.18;;;14.80;99.90;;;;;;5091224;28;20300;-81
2021/10/10 01:14:54;;;;;;;4.78;4.07;;;14.80;99.90;;;;;;5090414;28;20205;-81
2021/10/10 01:17:23;;;;;;;5.55;4.03;;;14.70;99.90;;;;;;5090513;28;20753;-81
2021/10/10 01:19:53;;;;;;;5.53;3.67;;;14.70;99.90;;;;;;5090373;28;20201;-81
2021/10/10 01:22:23;;;;;;;6.78;5.15;;;14.70;99.90;;;;;;5090260;28;20665;-81
2021/10/10 01:24:50;;;;;;;7.25;4.15;;;14.80;99.90;;;;;;5090411;28;20730;-81
2021/10/10 01:27:17;;;;;;;4.13;3.72;;;14.80;99.90;;;;;;5090617;28;20290;-82
2021/10/10 01:29:44;;;;;;;4.03;3.63;;;14.80;99.90;;;;;;5089934;28;20657;-81
2021/10/10 01:32:11;;;;;;;4.30;3.85;;;14.80;99.90;;;;;;5090437;28;20202;-81
2021/10/10 01:34:38;;;;;;;5.15;3.78;;;14.70;99.90;;;;;;5090431;28;20205;-82
2021/10/10 01:37:05;;;;;;;6.13;4.40;;;14.70;99.90;;;;;;5090524;28;20259;-84
2021/10/10 01:39:34;;;;;;;4.88;3.78;;;14.60;99.90;;;;;;5090808;28;20205;-82
2021/10/10 01:42:01;;;;;;;4.32;3.92;;;14.60;99.90;;;;;;5077558;28;20206;-80
2021/10/10 01:44:28;;;;;;;3.60;3.30;;;14.60;99.90;;;;;;5089558;28;20734;-82
2021/10/10 01:46:55;;;;;;;4.45;4.05;;;14.60;99.90;;;;;;5090720;28;20255;-82
2021/10/10 01:49:22;;;;;;;5.70;3.97;;;14.50;99.90;;;;;;5090291;28;20206;-82
2021/10/10 01:51:49;;;;;;;3.75;3.30;;;14.60;99.90;;;;;;5090220;28;20259;-80
2021/10/10 01:54:16;;;;;;;6.45;4.00;;;14.60;99.90;;;;;;5092564;28;20270;-82
2021/10/10 01:56:44;;;;;;;6.85;3.92;;;14.60;99.90;;;;;;5093868;28;20225;-82
2021/10/10 01:59:11;;;;;;;4.95;4.07;;;14.60;99.90;;;;;;5096518;28;20205;-80
2021/10/10 02:01:38;;;;;;;5.90;4.90;;;14.60;99.90;;;;;;5090894;28;20231;-81
2021/10/10 02:04:05;;;;;;;4.70;4.30;;;14.60;1.00;;;;;;5088609;28;20206;-82
2021/10/10 02:06:32;;;;;;;4.97;4.13;;;14.60;1.00;;;;;;5095653;28;20197;-82
2021/10/10 02:08:59;;;;;;;3.95;3.65;;;14.60;1.00;;;;;;5094028;28;20251;-79
2021/10/10 02:11:26;;;;;;;5.40;4.00;;;14.60;1.00;;;;;;5093683;28;20677;-82
2021/10/10 02:13:55;;;;;;;4.35;3.95;;;14.50;1.00;;;;;;5093810;28;20615;-83
2021/10/10 02:16:22;;;;;;;5.82;4.50;;;14.50;1.00;;;;;;5093644;28;20233;-82
2021/10/10 02:18:49;;;;;;;4.05;3.58;;;14.50;1.00;;;;;;5093252;28;20546;-82
2021/10/10 02:21:16;;;;;;;4.72;3.30;;;14.40;1.00;;;;;;5094138;28;20284;-82
2021/10/10 02:23:43;;;;;;;4.38;3.58;;;14.40;1.00;;;;;;5093210;28;20202;-82
2021/10/10 02:26:10;;;;;;;5.78;4.72;;;14.40;1.00;;;;;;5093406;28;20677;-82
2021/10/10 02:28:37;;;;;;;4.50;3.67;;;14.40;1.00;;;;;;5093245;28;20275;-83
2021/10/10 02:31:05;;;;;;;5.97;4.80;;;14.40;1.00;;;;;;5086954;28;20210;-82
2021/10/10 02:33:32;;;;;;;3.70;3.40;;;14.40;1.00;;;;;;5086747;28;20202;-83
2021/10/10 02:35:59;;;;;;;6.30;3.60;;;14.40;1.00;;;;;;5093352;28;20225;-82
2021/10/10 02:38:26;;;;;;;4.80;4.10;;;14.40;1.00;;;;;;5093723;28;20205;-81
2021/10/10 02:40:53;;;;;;;4.22;3.47;;;14.50;1.00;;;;;;5092537;28;20197;-82
2021/10/10 02:43:20;;;;;;;4.25;3.55;;;14.50;1.00;;;;;;5093406;28;20210;-82
2021/10/10 02:45:47;;;;;;;13.15;3.42;;;14.50;1.00;;;;;;5092708;28;20676;-82
2021/10/10 02:48:15;;;;;;;4.75;3.50;;;14.50;1.00;;;;;;5093392;28;20201;-82
2021/10/10 02:50:43;;;;;;;5.95;4.00;;;14.50;1.00;;;;;;5092918;28;20258;-81
2021/10/10 02:53:10;;;;;;;3.80;3.50;;;14.50;1.00;;;;;;5093218;28;20201;-82
2021/10/10 02:55:37;;;;;;;3.42;3.13;;;14.40;1.00;;;;;;5092525;28;20647;-83
2021/10/10 02:58:04;;;;;;;3.65;3.03;;;14.40;1.00;;;;;;5093088;28;20630;-82
2021/10/10 03:00:31;;;;;;;8.00;3.55;;;14.40;1.00;;;;;;5092966;28;20206;-82
2021/10/10 03:02:58;;;;;;;3.65;3.22;;;14.30;1.00;;;;;;5078882;28;20622;-82
2021/10/10 03:05:27;;;;;;;5.47;3.63;;;14.30;1.00;;;;;;5093000;28;20210;-82
2021/10/10 03:07:54;;;;;;;3.83;3.38;;;14.30;1.00;;;;;;5092932;28;20209;-82
2021/10/10 03:10:21;;;;;;;5.45;3.42;;;14.30;1.00;;;;;;5092791;28;20641;-82
2021/10/10 03:12:48;;;;;;;3.50;2.95;;;14.30;1.00;;;;;;5092445;28;20213;-82
2021/10/10 03:15:15;;;;;;;4.95;3.30;;;14.30;1.00;;;;;;5092586;28;20290;-82
2021/10/10 03:17:42;;;;;;;3.47;3.20;;;14.30;1.00;;;;;;5092364;28;20282;-82
2021/10/10 03:20:10;;;;;;;3.78;3.38;;;14.30;1.00;;;;;;5092546;28;20201;-82
2021/10/10 03:22:38;;;;;;;6.30;3.63;;;14.30;1.00;;;;;;5092783;28;20209;-81
2021/10/10 03:25:06;;;;;;;3.20;2.90;;;14.30;1.00;;;;;;5092437;28;20306;-82
2021/10/10 03:27:33;;;;;;;5.63;5.10;;;14.30;1.00;;;;;;5068530;28;20213;-80
2021/10/10 03:30:00;;;;;;;3.63;3.33;;;14.30;1.00;;;;;;5095629;28;20262;-80
2021/10/10 03:32:27;;;;;;;6.70;4.60;;;14.30;1.00;;;;;;5092385;28;20213;-81
2021/10/10 03:34:54;;;;;;;4.00;3.60;;;14.30;1.00;;;;;;5092436;28;20292;-81
2021/10/10 03:37:21;;;;;;;3.97;2.85;;;14.20;1.00;;;;;;5092250;28;20310;-82
2021/10/10 03:39:49;;;;;;;5.45;3.20;;;14.20;1.00;;;;;;5092003;28;20210;-81
2021/10/10 03:42:16;;;;;;;5.28;4.35;;;14.20;1.00;;;;;;5092031;28;20251;-81
2021/10/10 03:44:45;;;;;;;3.55;3.20;;;14.30;1.00;;;;;;5091932;28;20205;-81
2021/10/10 03:47:14;;;;;;;3.58;3.28;;;14.30;1.00;;;;;;5092083;28;20205;-82
2021/10/10 03:49:41;;;;;;;4.07;3.65;;;14.30;1.00;;;;;;5064253;28;20237;-79
2021/10/10 03:52:09;;;;;;;5.65;3.47;;;14.20;1.00;;;;;;5092121;28;20213;-79
2021/10/10 03:57:23;;;;;;;4.05;3.65;;;14.20;1.00;;;;;;5085075;28;20228;-82
2021/10/10 03:59:54;;;;;;;3.65;3.33;;;14.20;1.00;;;;;;5091228;28;20205;-82
2021/10/10 04:02:21;;;;;;;4.43;3.90;;;14.30;1.00;;;;;;5092047;28;20240;-82
2021/10/10 04:04:50;;;;;;;4.03;3.50;;;14.20;1.00;;;;;;5091175;28;20650;-82
2021/10/10 04:07:17;;;;;;;5.22;4.30;;;14.20;1.00;;;;;;5091790;28;20209;-83
2021/10/10 04:09:45;;;;;;;4.60;4.05;;;14.20;1.00;;;;;;5091161;28;20270;-83
2021/10/10 04:12:12;;;;;;;5.20;4.05;;;14.30;1.00;;;;;;5091720;28;20637;-82
2021/10/10 04:14:40;;;;;;;4.28;3.60;;;14.30;1.00;;;;;;5091050;28;20689;-83
2021/10/10 04:17:07;;;;;;;4.03;3.67;;;14.20;1.00;;;;;;5090813;28;20222;-83
2021/10/10 04:19:34;;;;;;;4.43;4.00;;;14.20;1.00;;;;;;5091600;28;20260;-82
2021/10/10 04:22:02;;;;;;;4.57;3.47;;;14.30;1.00;;;;;;5091254;28;20221;-83
2021/10/10 04:24:29;;;;;;;8.50;4.25;;;14.20;1.00;;;;;;5091192;28;20246;-82
2021/10/10 04:26:56;;;;;;;3.70;3.35;;;14.20;1.00;;;;;;5091271;28;20231;-82
2021/10/10 04:29:23;;;;;;;5.43;4.78;;;14.20;1.00;;;;;;5091728;28;20205;-82
2021/10/10 04:31:52;;;;;;;4.63;4.03;;;14.20;1.00;;;;;;5091584;28;20267;-83
2021/10/10 04:34:19;;;;;;;4.85;4.10;;;14.20;1.00;;;;;;5077953;28;20214;-82
2021/10/10 04:36:46;;;;;;;5.28;4.28;;;14.20;1.00;;;;;;5091712;28;20282;-83
2021/10/10 04:39:13;;;;;;;5.10;4.32;;;14.10;1.00;;;;;;5093744;28;20270;-81
2021/10/10 04:41:39;;;;;;;6.25;4.90;;;14.10;1.00;;;;;;5090530;28;20205;-81
2021/10/10 04:44:07;;;;;;;5.13;3.97;;;14.10;1.00;;;;;;5090745;28;20627;-81
2021/10/10 04:46:34;;;;;;;5.85;4.40;;;14.00;1.00;;;;;;5091042;28;20618;-81
2021/10/10 04:49:02;;;;;;;5.47;4.97;;;14.00;1.00;;;;;;5091068;28;20254;-81
2021/10/10 04:51:29;;;;;;;5.82;4.18;;;14.00;1.00;;;;;;5090505;28;20278;-80
2021/10/10 04:53:56;;;;;;;4.93;4.43;;;14.00;1.00;;;;;;5091061;28;20205;-81
2021/10/10 04:56:23;;;;;;;12.18;5.60;;;14.00;1.00;;;;;;5084812;28;20645;-81
2021/10/10 04:58:50;;;;;;;6.75;4.60;;;14.00;1.00;;;;;;5081886;28;20213;-81
2021/10/10 05:01:17;;;;;;;5.82;4.70;;;14.00;1.00;;;;;;5086447;28;20206;-81
2021/10/10 05:03:44;;;;;;;5.20;4.15;;;14.00;1.00;;;;;;5080214;28;20254;-81
2021/10/10 05:06:12;;;;;;;6.55;4.93;;;14.00;1.00;;;;;;5090265;28;20632;-79
2021/10/10 05:08:39;;;;;;;6.68;4.50;;;13.90;1.00;;;;;;5090369;28;20259;-80
2021/10/10 05:11:07;;;;;;;9.80;7.13;;;13.80;1.00;;;;;;5091037;28;20217;-77
2021/10/10 05:13:36;;;;;;;6.30;5.47;;;13.80;1.00;;;;;;5090701;28;20278;-82
2021/10/10 05:16:04;;;;;;;4.82;4.43;;;13.70;1.00;;;;;;5090562;28;20275;-81
2021/10/10 05:18:31;;;;;;;6.35;4.88;;;13.80;1.00;;;;;;5090002;28;20258;-82
2021/10/10 05:20:58;;;;;;;4.50;4.20;;;13.90;1.00;;;;;;5090761;28;20252;-82
2021/10/10 05:23:26;;;;;;;5.50;5.00;;;13.80;1.00;;;;;;5077008;28;20264;-83
2021/10/10 05:25:54;;;;;;;5.43;4.90;;;13.90;1.00;;;;;;5076798;28;20250;-83
2021/10/10 05:28:21;;;;;;;4.82;4.32;;;13.90;1.00;;;;;;5093548;28;20210;-82
2021/10/10 05:30:48;;;;;;;5.57;4.38;;;13.90;1.00;;;;;;5094471;28;20581;-83
2021/10/10 05:33:15;;;;;;;6.43;5.78;;;13.80;1.00;;;;;;5094741;28;20209;-83
2021/10/10 05:35:42;;;;;;;9.32;6.53;;;13.80;1.00;;;;;;5090732;28;20209;-83
2021/10/10 05:38:09;;;;;;;7.05;5.15;;;13.80;1.00;;;;;;5084052;28;20229;-82
2021/10/10 05:40:38;;;;;;;6.95;5.32;;;13.70;1.00;;;;;;5094103;28;20205;-83
2021/10/10 05:43:05;;;;;;;6.32;5.10;;;13.70;1.00;;;;;;5094848;28;20259;-80
2021/10/10 05:45:32;;;;;;;7.45;4.95;;;13.70;1.00;;;;;;5094008;28;20743;-79
2021/10/10 05:47:59;;;;;;;5.85;5.35;;;13.60;1.00;;;;;;5080568;28;20794;-79
2021/10/10 05:50:27;;;;;;;6.63;5.50;;;13.60;1.00;;;;;;5094292;28;20673;-82
2021/10/10 05:52:54;;;;;;;6.10;4.95;;;13.60;1.00;;;;;;5094479;28;20675;-78
2021/10/10 05:55:23;;;;;;;6.88;5.35;;;13.70;1.00;;;;;;5094607;28;20259;-82
2021/10/10 05:57:52;;;;;;;6.93;5.05;;;13.70;1.00;;;;;;5094969;28;20282;-81
2021/10/10 06:00:20;;;;;;;7.47;5.13;;;13.70;1.00;;;;;;5094597;28;20213;-82
2021/10/10 06:02:48;;;;;;;6.53;5.93;;;13.70;1.00;;;;;;5093454;28;20209;-81
2021/10/10 06:05:16;;;;;;;7.70;5.30;;;13.70;1.00;;;;;;5094187;28;20205;-78
2021/10/10 06:07:43;;;;;;;6.28;5.68;;;13.60;1.00;;;;;;5094056;28;20209;-82
2021/10/10 06:10:10;;;;;;;5.97;5.38;;;13.60;1.00;;;;;;5095956;28;20243;-82
2021/10/10 06:12:39;;;;;;;7.00;5.88;;;13.60;1.00;;;;;;5093784;28;20206;-83
2021/10/10 06:15:10;;;;;;;8.15;5.13;;;13.70;1.00;;;;;;5093662;28;20254;-82
2021/10/10 06:17:37;;;;;;;5.93;4.65;;;13.70;1.00;;;;;;5081695;28;20578;-82
2021/10/10 06:20:07;;;;;;;7.30;5.93;;;13.70;1.00;;;;;;5070925;28;20811;-81
2021/10/10 06:22:35;;;;;;;7.35;4.82;;;13.70;1.00;;;;;;5093441;28;20213;-82
2021/10/10 06:25:02;;;;;;;7.35;6.20;;;13.80;1.00;;;;;;5093791;28;20209;-82
2021/10/10 06:27:29;;;;;;;6.88;5.78;;;13.80;1.00;;;;;;5093135;28;20581;-82
2021/10/10 06:29:56;;;;;;;5.70;4.97;;;13.80;1.00;;;;;;5075971;28;20202;-78
2021/10/10 06:32:25;;;;;;;8.50;5.70;;;13.90;1.00;;;;;;5078702;28;20208;-78
2021/10/10 06:34:52;;;;;;;12.40;5.85;;;14.00;1.00;;;;;;5089819;28;20743;-80
2021/10/10 06:37:19;;;;;;;5.95;5.10;;;14.00;1.00;;;;;;5089561;28;20225;-81
2021/10/10 06:39:46;;;;;;;5.55;4.50;;;14.00;1.00;;;;;;5092430;28;20249;-75
2021/10/10 06:42:15;;;;;;;8.38;5.20;;;14.10;1.00;;;;;;5093291;28;20259;-76
2021/10/10 06:44:42;;;;;;;5.10;4.60;;;14.10;1.00;;;;;;5093082;28;20209;-76
2021/10/10 06:47:09;;;;;;;6.18;5.57;;;14.20;1.00;;;;;;5093327;28;20213;-76
2021/10/10 06:49:37;;;;;;;6.70;5.97;;;14.20;1.00;;;;;;5092513;28;20660;-76
2021/10/10 06:52:05;;;;;;;6.22;5.43;;;14.20;1.00;;;;;;5093364;28;20209;-76
2021/10/10 06:54:32;;;;;;;7.53;5.00;;;14.20;1.00;;;;;;5092622;28;20202;-76
2021/10/10 06:56:59;;;;;;;6.80;6.10;;;14.30;1.00;;;;;;5092965;28;20233;-76
2021/10/10 06:59:26;;;;;;;11.00;4.88;;;14.30;1.00;;;;;;5093110;28;20255;-75
2021/10/10 07:01:53;;;;;;;6.05;5.40;;;14.40;1.00;;;;;;5092660;28;20209;-76
2021/10/10 07:04:20;;;;;;;7.28;5.63;;;14.40;1.00;;;;;;5093021;28;20636;-76
2021/10/10 07:06:48;;;;;;;7.45;5.65;;;14.40;1.00;;;;;;5092785;28;20202;-76
2021/10/10 07:09:15;;;;;;;7.03;5.82;;;14.50;1.00;;;;;;5092997;28;20263;-76
2021/10/10 07:11:42;;;;;;;6.47;5.88;;;14.60;1.00;;;;;;5092176;28;20218;-76
2021/10/10 07:14:09;;;;;;;7.03;5.72;;;14.60;1.00;;;;;;5092963;28;20205;-75
2021/10/10 07:16:36;;;;;;;9.05;6.55;;;14.80;1.00;;;;;;5077855;28;20209;-76
2021/10/10 07:19:05;;;;;;;6.70;5.78;;;14.80;1.00;;;;;;5078817;28;20289;-76
2021/10/10 07:21:44;;;;;;;8.52;5.68;;;14.90;1.00;;;;;;5092524;28;20259;-79
2021/10/10 07:26:57;;;;;;;9.88;6.00;;;15.00;1.00;;;;;;5073957;28;20291;-79
2021/10/10 07:29:24;;;;;;;7.90;6.07;;;15.10;1.00;;;;;;5074005;28;20210;-77
2021/10/10 07:31:51;;;;;;;6.88;5.57;;;15.20;1.00;;;;;;5080068;28;20634;-81
2021/10/10 07:34:18;;;;;;;7.75;6.55;;;15.20;1.00;;;;;;5091958;28;20262;-76
2021/10/10 07:36:45;;;;;;;9.50;5.93;;;15.30;1.00;;;;;;5091873;28;20205;-76
2021/10/10 07:39:13;;;;;;;8.95;6.22;;;15.40;1.00;;;;;;5092085;28;20259;-80
2021/10/10 07:41:41;;;;;;;6.43;5.63;;;15.50;1.00;;;;;;5091797;28;20259;-75
2021/10/10 07:44:12;;;;;;;6.28;5.63;;;15.50;1.00;;;;;;5089696;28;20201;-78
2021/10/10 07:46:40;;;;;;;7.63;6.30;;;15.60;1.00;;;;;;5080808;28;20201;-82
2021/10/10 07:49:09;;;;;;;7.22;6.18;;;15.70;1.00;;;;;;5091651;28;20213;-78
2021/10/10 07:51:37;;;;;;;9.98;6.72;;;15.70;1.00;;;;;;5090587;28;20641;-80
2021/10/10 07:54:04;;;;;;;7.03;6.15;;;15.70;1.00;;;;;;5085367;28;20291;-78
2021/10/10 07:56:32;;;;;;;7.43;5.35;;;15.70;1.00;;;;;;5089201;28;20254;-75
2021/10/10 07:58:59;;;;;;;7.57;5.53;;;15.70;1.00;;;;;;5077420;28;20259;-77
2021/10/10 08:01:26;;;;;;;7.00;6.30;;;15.70;1.00;;;;;;5086549;28;20209;-80
2021/10/10 08:03:53;;;;;;;9.27;6.72;;;15.80;1.00;;;;;;5085379;28;20202;-79
2021/10/10 08:06:20;;;;;;;8.65;5.97;;;15.90;1.00;;;;;;5084260;28;20205;-80
2021/10/10 08:08:47;;;;;;;7.60;6.32;;;16.10;1.00;;;;;;5077117;28;20211;-78
2021/10/10 08:11:14;;;;;;;7.05;6.43;;;16.10;1.00;;;;;;5070690;28;20218;-78
2021/10/10 08:13:42;;;;;;;9.02;6.22;;;16.10;1.00;;;;;;5071395;28;20210;-76
2021/10/10 08:16:09;;;;;;;8.38;6.57;;;16.10;1.00;;;;;;5072743;28;20213;-78
2021/10/10 08:18:36;;;;;;;9.63;6.80;;;16.20;1.00;;;;;;5073761;28;20607;-76
2021/10/10 08:21:03;;;;;;;9.80;7.00;;;16.30;1.00;;;;;;5072025;28;20206;-76
2021/10/10 08:23:30;;;;;;;7.13;6.43;;;16.40;1.00;;;;;;5070807;28;20202;-79
2021/10/10 08:25:57;;;;;;;6.30;5.63;;;16.50;1.00;;;;;;5068575;28;20206;-80
2021/10/10 08:28:25;;;;;;;7.85;5.60;;;16.50;1.00;;;;;;5071421;28;20206;-81
2021/10/10 08:30:55;;;;;;;6.95;5.82;;;16.60;1.00;;;;;;5075274;28;20643;-79
2021/10/10 08:33:22;;;;;;;8.57;7.32;;;16.60;1.00;;;;;;5072924;28;20214;-81
2021/10/10 08:35:49;;;;;;;7.90;6.78;;;16.70;1.00;;;;;;5073594;28;20209;-80
2021/10/10 08:38:17;;;;;;;7.82;6.18;;;16.80;1.00;;;;;;5072000;28;20283;-79
2021/10/10 08:40:45;;;;;;;8.32;6.47;;;16.80;1.00;;;;;;5073108;28;20252;-80
2021/10/10 08:43:17;;;;;;;7.80;6.18;;;17.00;1.00;;;;;;5072189;28;20245;-81
2021/10/10 08:45:45;;;;;;;9.73;6.40;;;17.00;99.90;;;;;;5073049;28;20242;-79
2021/10/10 08:48:14;;;;;;;9.50;6.25;;;17.00;99.90;;;;;;5072213;28;20585;-78
2021/10/10 08:50:43;;;;;;;6.32;5.72;;;17.20;99.90;;;;;;5071880;28;20628;-81
2021/10/10 08:53:10;;;;;;;7.28;5.00;;;17.20;99.90;;;;;;5072634;28;20256;-80
2021/10/10 08:55:37;;;;;;;7.63;5.88;;;17.40;99.90;;;;;;5071728;28;20202;-79
2021/10/10 08:58:08;;;;;;;12.07;7.60;;;17.40;99.90;;;;;;5072854;28;20644;-81
2021/10/10 09:00:39;;;;;;;6.07;5.10;;;17.40;99.90;;;;;;5071614;28;20765;-79
2021/10/10 09:03:11;;;;;;;8.73;6.20;;;17.20;99.90;;;;;;5072853;28;20205;-80
2021/10/10 09:05:39;;;;;;;9.15;6.22;;;17.40;99.90;;;;;;5071547;28;20630;-81
2021/10/10 09:08:06;;;;;;;8.07;6.88;;;17.50;99.90;;;;;;5071072;28;20210;-78
2021/10/10 09:10:34;;;;;;;8.73;5.90;;;17.50;99.90;;;;;;5072281;28;20209;-80
2021/10/10 09:13:07;;;;;;;8.13;5.63;;;17.50;99.90;;;;;;5073676;28;20209;-77
2021/10/10 09:15:35;;;;;;;7.85;5.22;;;17.40;99.90;;;;;;5072514;28;20206;-77
2021/10/10 09:18:04;;;;;;;6.55;5.65;;;17.40;99.90;;;;;;5070637;28;20226;-77
2021/10/10 09:20:34;;;;;;;7.47;6.03;;;17.50;99.90;;;;;;5074156;28;20210;-77
2021/10/10 09:23:04;;;;;;;7.22;5.70;;;17.60;99.90;;;;;;5077877;28;20666;-76
2021/10/10 09:25:32;;;;;;;7.75;6.13;;;17.70;99.90;;;;;;5071898;28;20197;-77
2021/10/10 09:28:04;;;;;;;6.78;5.13;;;17.70;99.90;;;;;;5070792;28;20271;-77
2021/10/10 09:30:47;;;;;;;9.35;5.68;;;18.10;99.90;;;;;;5070284;28;20198;-76
2021/10/10 09:33:15;;;;;;;8.32;5.65;;;18.30;99.90;;;;;;5072621;28;20234;-77
2021/10/10 09:35:42;;;;;;;6.43;5.85;;;18.20;99.90;;;;;;5071842;28;20205;-78
2021/10/10 09:38:18;;;;;;;9.23;5.95;;;18.30;99.90;;;;;;5071609;28;20226;-79
2021/10/10 09:40:52;;;;;;;7.10;6.10;;;18.20;99.90;;;;;;5073544;28;20259;-80
2021/10/10 09:43:19;;;;;;;5.78;5.18;;;18.20;99.90;;;;;;5076104;28;20209;-79
2021/10/10 09:45:54;;;;;;;6.60;5.30;;;18.20;99.90;;;;;;5067680;28;20301;-76
2021/10/10 09:48:33;;;;;;;5.57;4.97;;;18.30;99.90;;;;;;5071447;28;20205;-77
2021/10/10 09:51:00;;;;;;;6.65;5.78;;;18.50;99.90;;;;;;5074053;28;20280;-78
2021/10/10 09:53:33;;;;;;;9.27;6.47;;;18.60;99.90;;;;;;5074989;28;20206;-78
2021/10/10 09:56:03;;;;;;;7.95;6.50;;;18.40;99.90;;;;;;5076092;28;20251;-78
2021/10/10 09:58:38;;;;;;;7.53;5.80;;;18.30;99.90;;;;;;5074941;28;20431;-77
2021/10/10 10:01:15;;;;;;;9.38;5.63;;;18.30;99.90;;;;;;5070476;28;20206;-77
2021/10/10 10:03:59;;;;;;;7.07;5.45;;;18.50;99.90;;;;;;5070095;28;20206;-78
2021/10/10 10:06:30;;;;;;;5.80;5.00;;;18.80;99.90;;;;;;5070306;28;20210;-79
2021/10/10 10:09:02;;;;;;;8.18;5.30;;;19.30;99.90;;;;;;5072435;28;20255;-79
2021/10/10 10:11:31;;;;;;;8.65;6.35;;;19.40;99.90;;;;;;5074074;28;20233;-77
2021/10/10 10:14:04;;;;;;;6.70;6.03;;;20.10;99.90;;;;;;5069837;28;20310;-78
2021/10/10 10:16:32;;;;;;;7.43;6.53;;;19.80;99.90;;;;;;5074844;28;20263;-79
2021/10/10 10:19:00;;;;;;;6.90;5.88;;;19.00;99.90;;;;;;5075296;28;20238;-77
2021/10/10 10:21:29;;;;;;;5.97;5.38;;;19.20;99.90;;;;;;5081941;28;20662;-79
2021/10/10 10:24:01;;;;;;;7.40;6.70;;;19.10;99.90;;;;;;5086053;28;20293;-80
2021/10/10 10:26:32;;;;;;;13.05;5.82;;;18.70;99.90;;;;;;5076021;28;20207;-77
2021/10/10 10:29:01;;;;;;;7.47;6.50;;;18.80;99.90;;;;;;5075749;28;20202;-76
2021/10/10 10:31:29;;;;;;;7.65;6.82;;;18.80;99.90;;;;;;5075717;28;20210;-78
2021/10/10 10:34:18;;;;;;;8.30;7.53;;;18.80;99.90;;;;;;5078207;28;20210;-80
2021/10/10 10:37:07;;;;;;;8.38;6.15;;;19.00;99.90;;;;;;5075439;28;20359;-80
2021/10/10 10:39:38;;;;;;;8.00;6.05;;;18.70;99.90;;;;;;5071660;28;20595;-79
2021/10/10 10:42:07;;;;;;;8.23;6.97;;;18.50;99.90;;;;;;5075328;28;20260;-76
2021/10/10 10:44:41;;;;;;;6.43;5.40;;;18.20;99.90;;;;;;5072742;28;20206;-77
2021/10/10 10:47:11;;;;;;;6.95;6.25;;;17.90;99.90;;;;;;5073172;28;20267;-76
2021/10/10 10:50:01;;;;;;;8.15;6.40;;;18.30;99.90;;;;;;5076955;28;20210;-75
2021/10/10 10:52:31;;;;;;;7.30;5.97;;;18.60;99.90;;;;;;5076472;28;20206;-76
2021/10/10 10:55:14;;;;;;;8.32;6.90;;;18.70;99.90;;;;;;5075824;28;20248;-77
2021/10/10 10:57:48;;;;;;;6.25;5.65;;;18.60;99.90;;;;;;5076599;28;20731;-80
2021/10/10 11:00:20;;;;;;;7.82;7.03;;;18.50;99.90;;;;;;5075211;28;20276;-76
2021/10/10 11:03:00;;;;;;;6.55;5.85;;;18.90;99.90;;;;;;5074171;28;20210;-76
2021/10/10 11:05:38;;;;;;;6.45;5.75;;;19.10;99.90;;;;;;5075252;28;20210;-80
2021/10/10 11:08:07;;;;;;;7.22;6.47;;;19.20;99.90;;;;;;5076663;28;20201;-74
2021/10/10 11:10:37;;;;;;;5.97;5.45;;;19.10;99.90;;;;;;5074516;28;20633;-76
2021/10/10 11:13:21;;;;;;;6.88;6.00;;;19.30;99.90;;;;;;5076878;28;20202;-74
2021/10/10 11:15:53;;;;;;;7.03;5.70;;;18.90;99.90;;;;;;5081072;28;20629;-75
2021/10/10 11:18:22;;;;;;;5.97;4.20;;;18.60;99.90;;;;;;5092674;28;20278;-76
2021/10/10 11:20:51;;;;;;;7.25;5.32;;;18.60;99.90;;;;;;5092517;28;20667;-79
2021/10/10 11:23:18;;;;;;;6.28;5.70;;;18.40;99.90;;;;;;5092361;28;20213;-76
2021/10/10 11:25:49;;;;;;;6.32;5.22;;;18.40;99.90;;;;;;5091779;28;20638;-76
2021/10/10 11:28:17;;;;;;;6.43;5.45;;;18.40;99.90;;;;;;5092357;28;20618;-76
2021/10/10 11:30:44;;;;;;;9.00;6.18;;;18.20;99.90;;;;;;5091939;28;20669;-77
2021/10/10 11:33:11;;;;;;;8.27;7.47;;;18.00;99.90;;;;;;5092633;28;20206;-80
2021/10/10 11:35:41;;;;;;;7.60;6.82;;;17.90;99.90;;;;;;5092036;28;20284;-76
2021/10/10 11:38:10;;;;;;;6.35;5.43;;;18.00;99.90;;;;;;5092272;28;20202;-77
2021/10/10 11:40:39;;;;;;;8.82;6.05;;;17.90;99.90;;;;;;5091669;28;20684;-76
2021/10/10 11:43:07;;;;;;;5.93;5.40;;;17.90;99.90;;;;;;5092515;28;20202;-79
2021/10/10 11:45:34;;;;;;;5.30;4.80;;;17.80;99.90;;;;;;5091648;28;20251;-77
2021/10/10 11:48:01;;;;;;;8.38;6.70;;;17.70;99.90;;;;;;5068223;28;20202;-76
2021/10/10 11:50:34;;;;;;;5.55;5.03;;;17.80;99.90;;;;;;5074727;28;20256;-76
2021/10/10 11:53:02;;;;;;;6.18;5.57;;;18.10;99.90;;;;;;5076344;28;20230;-76
2021/10/10 11:55:35;;;;;;;5.57;4.88;;;18.70;99.90;;;;;;5074071;28;20202;-76
2021/10/10 11:58:03;;;;;;;5.47;4.93;;;19.30;99.90;;;;;;5076165;28;20672;-76
2021/10/10 12:00:33;;;;;;;8.85;5.18;;;19.70;99.90;;;;;;5071158;28;20206;-75
2021/10/10 12:03:10;;;;;;;5.53;4.97;;;19.50;99.90;;;;;;5076326;28;20285;-75
2021/10/10 12:05:42;;;;;;;5.20;4.70;;;19.70;99.90;;;;;;5073316;28;20561;-78
2021/10/10 12:08:19;;;;;;;4.68;4.10;;;19.90;99.90;;;;;;5075166;28;20202;-76
2021/10/10 12:10:48;;;;;;;4.68;4.28;;;20.20;99.90;;;;;;5072504;28;20206;-78
2021/10/10 12:13:15;;;;;;;6.38;5.35;;;20.30;99.90;;;;;;5088248;28;20205;-76
2021/10/10 12:15:44;;;;;;;4.47;4.05;;;20.20;99.90;;;;;;5089827;28;20247;-76
2021/10/10 12:18:12;;;;;;;4.88;4.47;;;20.50;99.90;;;;;;5091513;28;20205;-78
2021/10/10 12:20:40;;;;;;;3.90;3.50;;;20.50;99.90;;;;;;5085495;28;20206;-77
2021/10/10 12:23:09;;;;;;;4.93;3.75;;;20.50;99.90;;;;;;5082747;28;20672;-78
2021/10/10 12:25:38;;;;;;;4.53;4.07;;;20.90;99.90;;;;;;5091012;28;20197;-76
2021/10/10 12:28:08;;;;;;;5.38;3.95;;;21.20;99.90;;;;;;5091310;28;20286;-78
2021/10/10 12:30:37;;;;;;;4.90;4.40;;;21.10;99.90;;;;;;5076517;28;20220;-77
2021/10/10 12:33:28;;;;;;;4.97;4.22;;;21.00;99.90;;;;;;5091625;28;20291;-80
2021/10/10 12:35:57;;;;;;;4.95;4.45;;;20.80;99.90;;;;;;5091271;28;20680;-81
2021/10/10 12:38:29;;;;;;;6.00;4.47;;;20.50;99.90;;;;;;5091078;28;20213;-80
2021/10/10 12:40:56;;;;;;;4.05;3.65;;;20.20;99.90;;;;;;5091132;28;20288;-78
2021/10/10 12:43:37;;;;;;;3.97;3.67;;;20.10;99.90;;;;;;5091456;28;20202;-77
2021/10/10 12:46:04;;;;;;;5.82;3.75;;;20.10;99.90;;;;;;5090929;28;20728;-76
2021/10/10 12:48:32;;;;;;;5.72;3.67;;;20.20;99.90;;;;;;5090777;28;20262;-77
2021/10/10 12:51:02;;;;;;;3.38;3.10;;;20.20;99.90;;;;;;5090642;28;20681;-78
2021/10/10 12:53:30;;;;;;;3.92;3.50;;;19.90;99.90;;;;;;5091556;28;20288;-77
2021/10/10 12:56:15;;;;;;;4.97;3.60;;;20.20;99.90;;;;;;5091197;28;20218;-78
2021/10/10 12:58:51;;;;;;;3.83;3.38;;;20.50;99.90;;;;;;5090413;28;20704;-80
2021/10/10 13:01:18;;;;;;;4.20;3.80;;;20.90;99.90;;;;;;5090747;28;20580;-78
2021/10/10 13:03:47;;;;;;;4.47;3.55;;;21.00;99.90;;;;;;5090415;28;20274;-79
2021/10/10 13:06:15;;;;;;;4.53;3.72;;;20.70;99.90;;;;;;5090587;28;20205;-80